createdAt,value
2022-10-26T00:00:45.158Z,8.17
2022-10-26T00:03:11.547Z,8.33
2022-10-26T00:05:38.113Z,8.45
2022-10-26T00:08:04.617Z,8.43
2022-10-26T00:10:31.835Z,8.28
2022-10-26T00:13:00.840Z,8.25
2022-10-26T00:15:29.579Z,8.06
2022-10-26T00:17:55.948Z,8.25
2022-10-26T00:20:22.324Z,8.20
2022-10-26T00:22:48.614Z,8.23
2022-10-26T00:25:15.002Z,8.19
2022-10-26T00:27:41.310Z,8.18
2022-10-26T00:30:07.857Z,8.26
2022-10-26T00:32:34.424Z,8.27
2022-10-26T00:35:10.516Z,8.31
2022-10-26T00:37:47.601Z,8.48
2022-10-26T00:40:14.208Z,8.48
2022-10-26T00:42:40.511Z,8.36
2022-10-26T00:45:15.992Z,8.41
2022-10-26T00:47:49.297Z,8.43
2022-10-26T00:50:18.332Z,8.46
2022-10-26T00:52:44.733Z,8.42
2022-10-26T00:55:11.290Z,8.37
2022-10-26T00:57:39.206Z,8.41
2022-10-26T01:00:07.440Z,8.35
2022-10-26T01:02:33.873Z,8.44
2022-10-26T01:05:01.422Z,8.39
2022-10-26T01:07:27.997Z,8.29
2022-10-26T01:09:54.807Z,8.39
2022-10-26T01:12:25.783Z,8.43
2022-10-26T01:14:52.408Z,8.47
2022-10-26T01:17:33.750Z,8.40
2022-10-26T01:20:22.752Z,8.42
2022-10-26T01:23:01.355Z,8.49
2022-10-26T01:25:27.667Z,8.49
2022-10-26T01:27:54.072Z,8.57
2022-10-26T01:30:20.503Z,8.73
2022-10-26T01:32:52.770Z,8.73
2022-10-26T01:35:28.242Z,8.75
2022-10-26T01:38:03.047Z,8.71
2022-10-26T01:40:48.006Z,8.68
2022-10-26T01:43:15.555Z,8.75
2022-10-26T01:45:43.968Z,8.83
2022-10-26T01:48:13.451Z,8.80
2022-10-26T01:50:41.718Z,8.80
2022-10-26T01:53:11.269Z,8.84
2022-10-26T01:55:37.594Z,8.69
2022-10-26T01:58:10.795Z,8.66
2022-10-26T02:00:41.748Z,8.69
2022-10-26T02:03:30.294Z,8.72
2022-10-26T02:06:06.548Z,8.81
2022-10-26T02:08:47.951Z,8.92
2022-10-26T02:11:43.732Z,9.05
2022-10-26T02:14:10.027Z,9.05
2022-10-26T02:16:49.292Z,8.99
2022-10-26T02:19:15.582Z,9.00
2022-10-26T02:21:45.005Z,9.07
2022-10-26T02:24:12.436Z,9.18
2022-10-26T02:26:39.762Z,9.25
2022-10-26T02:29:08.808Z,9.24
2022-10-26T02:31:38.774Z,9.17
2022-10-26T02:34:06.987Z,9.17
2022-10-26T02:36:35.924Z,9.28
2022-10-26T02:39:04.082Z,9.33
2022-10-26T02:41:30.896Z,9.21
2022-10-26T02:44:02.158Z,9.39
2022-10-26T02:46:28.802Z,9.23
2022-10-26T02:48:56.150Z,9.24
2022-10-26T02:51:28.556Z,9.25
2022-10-26T02:53:58.504Z,9.30
2022-10-26T02:56:29.128Z,9.29
2022-10-26T02:58:57.973Z,9.30
2022-10-26T03:01:24.538Z,9.38
2022-10-26T03:03:51.174Z,9.40
2022-10-26T03:06:21.890Z,9.50
2022-10-26T03:08:48.355Z,9.42
2022-10-26T03:11:14.697Z,9.39
2022-10-26T03:13:41.017Z,9.61
2022-10-26T03:16:07.413Z,9.56
2022-10-26T03:18:33.748Z,9.43
2022-10-26T03:21:00.221Z,9.52
2022-10-26T03:23:26.635Z,9.51
2022-10-26T03:25:59.008Z,9.50
2022-10-26T03:28:25.518Z,9.55
2022-10-26T03:30:54.277Z,9.52
2022-10-26T03:33:24.350Z,9.50
2022-10-26T03:35:56.940Z,9.53
2022-10-26T03:38:23.442Z,9.59
2022-10-26T03:40:49.741Z,9.60
2022-10-26T03:43:16.106Z,9.56
2022-10-26T03:45:42.412Z,9.61
2022-10-26T03:48:08.742Z,9.65
2022-10-26T03:50:35.124Z,9.68
2022-10-26T03:53:01.433Z,9.79
2022-10-26T03:55:27.802Z,9.80
2022-10-26T03:57:54.101Z,9.82
2022-10-26T04:00:20.628Z,9.81
2022-10-26T04:02:53.789Z,9.81
2022-10-26T04:05:20.131Z,9.84
2022-10-26T04:07:56.529Z,9.87
2022-10-26T04:10:22.995Z,10.02
2022-10-26T04:12:49.568Z,10.28
2022-10-26T04:15:15.970Z,10.35
2022-10-26T04:17:42.285Z,10.18
2022-10-26T04:20:08.925Z,10.00
2022-10-26T04:22:36.446Z,10.04
2022-10-26T04:25:06.163Z,10.04
2022-10-26T04:27:35.390Z,9.98
2022-10-26T04:30:01.713Z,9.94
2022-10-26T04:32:28.030Z,10.03
2022-10-26T04:34:54.538Z,10.17
2022-10-26T04:37:21.092Z,10.18
2022-10-26T04:39:47.435Z,10.08
2022-10-26T04:42:13.736Z,10.15
2022-10-26T04:44:42.432Z,10.07
2022-10-26T04:47:11.172Z,10.00
2022-10-26T04:49:37.490Z,10.00
2022-10-26T04:52:08.266Z,10.04
2022-10-26T04:54:34.729Z,10.05
2022-10-26T04:57:01.051Z,10.03
2022-10-26T04:59:27.429Z,10.02
2022-10-26T05:01:53.946Z,10.02
2022-10-26T05:04:20.555Z,10.04
2022-10-26T05:06:46.953Z,10.07
2022-10-26T05:09:13.294Z,10.13
2022-10-26T05:11:39.663Z,10.16
2022-10-26T05:14:06.075Z,10.17
2022-10-26T05:16:32.453Z,10.25
2022-10-26T05:18:58.819Z,10.19
2022-10-26T05:21:25.180Z,10.24
2022-10-26T05:23:55.677Z,10.27
2022-10-26T05:26:22.957Z,10.38
2022-10-26T05:28:49.421Z,10.38
2022-10-26T05:31:15.828Z,10.30
2022-10-26T05:33:42.327Z,10.37
2022-10-26T05:36:08.827Z,10.19
2022-10-26T05:38:35.194Z,10.23
2022-10-26T05:41:01.742Z,10.32
2022-10-26T05:43:28.182Z,10.35
2022-10-26T05:45:54.554Z,10.43
2022-10-26T05:48:21.305Z,10.37
2022-10-26T05:50:47.871Z,10.36
2022-10-26T05:53:14.255Z,10.41
2022-10-26T05:55:40.856Z,10.44
2022-10-26T05:58:14.794Z,10.42
2022-10-26T06:00:57.115Z,10.42
2022-10-26T06:03:23.569Z,10.41
2022-10-26T06:05:53.414Z,10.39
2022-10-26T06:08:20.783Z,10.47
2022-10-26T06:10:47.354Z,10.47
2022-10-26T06:13:13.902Z,10.44
2022-10-26T06:15:48.440Z,10.55
2022-10-26T06:18:21.145Z,10.75
2022-10-26T06:21:05.995Z,10.82
2022-10-26T06:23:46.624Z,10.87
2022-10-26T06:26:16.407Z,10.82
2022-10-26T06:28:44.067Z,10.76
2022-10-26T06:31:13.561Z,10.79
2022-10-26T06:33:40.428Z,10.73
2022-10-26T06:36:23.183Z,10.78
2022-10-26T06:39:06.984Z,10.81
2022-10-26T06:41:34.613Z,10.83
2022-10-26T06:44:02.643Z,10.89
2022-10-26T06:46:41.242Z,10.99
2022-10-26T06:49:10.628Z,10.94
2022-10-26T06:51:41.061Z,10.92
2022-10-26T06:54:27.659Z,10.95
2022-10-26T06:56:56.453Z,10.96
2022-10-26T06:59:32.384Z,10.88
2022-10-26T07:02:01.668Z,10.96
2022-10-26T07:04:30.719Z,10.99
2022-10-26T07:06:57.353Z,10.98
2022-10-26T07:09:23.730Z,11.03
2022-10-26T07:11:50.108Z,10.96
2022-10-26T07:14:16.494Z,11.04
2022-10-26T07:16:42.808Z,11.05
2022-10-26T07:19:09.132Z,11.12
2022-10-26T07:21:35.454Z,11.20
2022-10-26T07:24:01.799Z,11.27
2022-10-26T07:26:28.144Z,11.27
2022-10-26T07:28:54.449Z,11.26
2022-10-26T07:31:20.874Z,11.34
2022-10-26T07:33:47.201Z,11.39
2022-10-26T07:36:13.584Z,11.35
2022-10-26T07:38:39.952Z,11.43
2022-10-26T07:41:06.459Z,11.51
2022-10-26T07:43:32.864Z,11.56
2022-10-26T07:45:59.275Z,11.64
2022-10-26T07:48:25.611Z,11.68
2022-10-26T07:50:52.040Z,11.71
2022-10-26T07:53:18.436Z,11.78
2022-10-26T07:55:52.556Z,11.83
2022-10-26T07:58:23.511Z,11.83
2022-10-26T08:00:50.506Z,11.88
2022-10-26T08:03:19.729Z,11.91
2022-10-26T08:05:47.585Z,11.96
2022-10-26T08:08:14.293Z,12.09
2022-10-26T08:10:44.823Z,12.19
2022-10-26T08:13:14.163Z,12.29
2022-10-26T08:15:40.970Z,12.51
2022-10-26T08:18:07.671Z,12.58
2022-10-26T08:20:34.003Z,12.71
2022-10-26T08:23:01.242Z,12.82
2022-10-26T08:25:27.687Z,12.96
2022-10-26T08:27:54.358Z,13.35
2022-10-26T08:30:20.749Z,13.42
2022-10-26T08:32:49.804Z,13.53
2022-10-26T08:35:16.576Z,13.79
2022-10-26T08:37:42.917Z,14.03
2022-10-26T08:40:15.116Z,14.14
2022-10-26T08:42:47.238Z,14.25
2022-10-26T08:45:27.574Z,14.27
2022-10-26T08:47:58.973Z,14.23
2022-10-26T08:50:31.814Z,14.24
2022-10-26T08:53:03.836Z,14.32
2022-10-26T08:55:53.239Z,14.39
2022-10-26T08:58:22.542Z,14.44
2022-10-26T09:00:50.100Z,14.52
2022-10-26T09:03:17.252Z,14.73
2022-10-26T09:06:05.577Z,14.92
2022-10-26T09:08:52.158Z,15.00
2022-10-26T09:11:27.566Z,15.15
2022-10-26T09:13:56.372Z,15.30
2022-10-26T09:16:25.310Z,15.44
2022-10-26T09:18:58.970Z,15.50
2022-10-26T09:21:34.424Z,15.44
2022-10-26T09:24:28.446Z,15.42
2022-10-26T09:26:56.373Z,15.48
2022-10-26T09:29:26.105Z,15.49
2022-10-26T09:31:53.837Z,15.50
2022-10-26T09:34:26.297Z,15.61
2022-10-26T09:36:58.632Z,15.64
2022-10-26T09:39:42.191Z,15.70
2022-10-26T09:42:31.923Z,15.84
2022-10-26T09:45:00.897Z,15.89
2022-10-26T09:47:30.291Z,16.02
2022-10-26T09:50:01.349Z,16.17
2022-10-26T09:52:28.899Z,16.48
2022-10-26T09:54:57.873Z,16.72
2022-10-26T09:57:24.622Z,16.74
2022-10-26T09:59:55.688Z,16.76
2022-10-26T10:02:35.222Z,16.71
2022-10-26T10:05:01.749Z,16.67
2022-10-26T10:07:28.242Z,16.52
2022-10-26T10:10:06.631Z,16.54
2022-10-26T10:12:33.020Z,16.36
2022-10-26T10:14:59.508Z,16.39
2022-10-26T10:17:26.425Z,16.47
2022-10-26T10:19:53.067Z,16.43
2022-10-26T10:22:22.398Z,16.49
2022-10-26T10:24:54.940Z,16.47
2022-10-26T10:27:21.328Z,16.61
2022-10-26T10:29:51.735Z,16.50
2022-10-26T10:32:22.907Z,16.60
2022-10-26T10:34:50.278Z,16.67
2022-10-26T10:37:30.596Z,16.71
2022-10-26T10:40:04.873Z,16.78
2022-10-26T10:42:32.957Z,16.83
2022-10-26T10:44:59.744Z,17.04
2022-10-26T10:47:28.515Z,17.17
2022-10-26T10:49:57.472Z,17.19
2022-10-26T10:52:29.150Z,17.17
2022-10-26T10:55:03.062Z,17.06
2022-10-26T10:57:39.591Z,17.05
2022-10-26T11:00:09.347Z,16.98
2022-10-26T11:02:54.438Z,17.02
2022-10-26T11:05:23.402Z,16.97
2022-10-26T11:07:59.925Z,16.91
2022-10-26T11:10:27.940Z,16.85
2022-10-26T11:12:57.033Z,17.00
2022-10-26T11:15:26.145Z,17.10
2022-10-26T11:17:52.611Z,17.10
2022-10-26T11:20:22.205Z,17.28
2022-10-26T11:22:52.237Z,17.39
2022-10-26T11:25:28.228Z,17.31
2022-10-26T11:27:57.730Z,17.35
2022-10-26T11:30:27.577Z,17.23
2022-10-26T11:33:00.480Z,17.13
2022-10-26T11:35:40.031Z,17.04
2022-10-26T11:38:06.331Z,16.91
2022-10-26T11:40:35.711Z,16.80
2022-10-26T11:43:09.946Z,16.84
2022-10-26T11:45:39.727Z,16.81
2022-10-26T11:48:14.964Z,16.79
2022-10-26T11:50:44.507Z,16.75
2022-10-26T11:53:10.917Z,16.75
2022-10-26T11:55:38.063Z,16.75
2022-10-26T11:58:04.784Z,16.75
2022-10-26T12:00:32.847Z,16.80
2022-10-26T12:03:06.798Z,16.78
2022-10-26T12:05:33.106Z,16.76
2022-10-26T12:08:04.129Z,16.71
2022-10-26T12:10:32.454Z,16.68
2022-10-26T12:13:01.839Z,16.69
2022-10-26T12:16:01.729Z,16.87
2022-10-26T12:18:43.234Z,16.92
2022-10-26T12:21:13.397Z,17.00
2022-10-26T12:23:53.252Z,17.01
2022-10-26T12:26:37.553Z,16.91
2022-10-26T12:29:03.858Z,16.95
2022-10-26T12:31:36.268Z,16.86
2022-10-26T12:34:22.864Z,16.95
2022-10-26T12:36:55.255Z,17.00
2022-10-26T12:39:34.959Z,17.20
2022-10-26T12:42:10.183Z,17.28
2022-10-26T12:44:42.667Z,17.42
2022-10-26T12:47:09.930Z,17.48
2022-10-26T12:49:55.296Z,17.52
2022-10-26T12:52:23.021Z,17.59
2022-10-26T12:55:08.137Z,17.66
2022-10-26T12:57:44.297Z,17.60
2022-10-26T13:00:18.385Z,17.53
2022-10-26T13:02:44.871Z,17.52
2022-10-26T13:05:20.372Z,17.52
2022-10-26T13:07:46.866Z,17.44
2022-10-26T13:10:13.199Z,17.42
2022-10-26T13:12:42.598Z,17.39
2022-10-26T13:15:20.322Z,17.30
2022-10-26T13:18:13.169Z,17.34
2022-10-26T13:20:52.862Z,17.36
2022-10-26T13:23:24.230Z,17.25
2022-10-26T13:26:04.951Z,17.26
2022-10-26T13:28:31.279Z,17.35
2022-10-26T13:30:59.810Z,17.35
2022-10-26T13:33:34.091Z,17.45
2022-10-26T13:36:02.518Z,17.49
2022-10-26T13:38:34.394Z,17.47
2022-10-26T13:41:10.870Z,17.49
2022-10-26T13:43:37.552Z,17.53
2022-10-26T13:46:04.385Z,17.40
2022-10-26T13:48:37.922Z,17.37
2022-10-26T13:51:20.964Z,17.38
2022-10-26T13:53:51.816Z,17.36
2022-10-26T13:56:30.660Z,17.36
2022-10-26T13:59:05.400Z,17.32
2022-10-26T14:01:31.948Z,17.35
2022-10-26T14:03:58.408Z,17.23
2022-10-26T14:06:44.959Z,17.18
2022-10-26T14:09:15.746Z,17.09
2022-10-26T14:11:48.226Z,17.07
2022-10-26T14:14:17.202Z,17.14
2022-10-26T14:16:46.559Z,17.13
2022-10-26T14:19:25.911Z,17.16
2022-10-26T14:21:53.209Z,17.16
2022-10-26T14:24:31.497Z,17.13
2022-10-26T14:27:02.257Z,16.97
2022-10-26T14:29:34.456Z,17.01
2022-10-26T14:32:00.775Z,16.92
2022-10-26T14:34:29.978Z,16.80
2022-10-26T14:37:01.948Z,16.81
2022-10-26T14:39:37.115Z,16.79
2022-10-26T14:42:10.727Z,16.80
2022-10-26T14:44:37.490Z,16.78
2022-10-26T14:47:03.885Z,16.73
2022-10-26T14:49:30.248Z,16.75
2022-10-26T14:51:58.211Z,16.82
2022-10-26T14:54:26.171Z,16.88
2022-10-26T14:56:53.078Z,16.83
2022-10-26T14:59:22.487Z,16.75
2022-10-26T15:01:53.673Z,16.78
2022-10-26T15:04:26.319Z,16.74
2022-10-26T15:06:52.662Z,16.69
2022-10-26T15:09:29.796Z,16.70
2022-10-26T15:11:56.206Z,16.63
2022-10-26T15:14:22.590Z,16.62
2022-10-26T15:16:54.243Z,16.61
2022-10-26T15:19:23.782Z,16.61
2022-10-26T15:21:51.032Z,16.56
2022-10-26T15:24:20.343Z,16.52
2022-10-26T15:26:46.906Z,16.53
2022-10-26T15:29:32.071Z,16.45
2022-10-26T15:32:02.225Z,16.43
2022-10-26T15:34:28.654Z,16.38
2022-10-26T15:36:55.090Z,16.37
2022-10-26T15:39:22.420Z,16.36
2022-10-26T15:41:49.280Z,16.26
2022-10-26T15:44:19.290Z,16.17
2022-10-26T15:46:46.077Z,16.08
2022-10-26T15:49:17.113Z,15.95
2022-10-26T15:51:44.847Z,15.92
2022-10-26T15:54:11.397Z,15.88
2022-10-26T15:56:39.716Z,15.79
2022-10-26T15:59:11.834Z,15.75
2022-10-26T16:01:38.295Z,15.66
2022-10-26T16:04:04.724Z,15.67
2022-10-26T16:06:32.681Z,15.50
2022-10-26T16:09:00.630Z,15.38
2022-10-26T16:11:27.263Z,15.41
2022-10-26T16:13:55.202Z,15.33
2022-10-26T16:16:23.447Z,15.25
2022-10-26T16:19:06.031Z,15.27
2022-10-26T16:21:41.769Z,15.19
2022-10-26T16:24:08.304Z,15.24
2022-10-26T16:26:34.607Z,15.11
2022-10-26T16:29:03.431Z,15.12
2022-10-26T16:31:29.728Z,15.10
2022-10-26T16:34:00.199Z,15.12
2022-10-26T16:36:29.771Z,15.08
2022-10-26T16:38:56.163Z,15.01
2022-10-26T16:41:22.581Z,14.91
2022-10-26T16:46:18.307Z,14.91
2022-10-26T16:48:45.710Z,14.93
2022-10-26T16:51:16.401Z,14.76
2022-10-26T16:53:42.881Z,14.79
2022-10-26T16:56:10.537Z,14.70
2022-10-26T16:58:37.621Z,14.63
2022-10-26T17:01:07.023Z,14.64
2022-10-26T17:03:33.530Z,14.73
2022-10-26T17:06:04.337Z,14.71
2022-10-26T17:08:31.621Z,14.61
2022-10-26T17:11:05.649Z,14.49
2022-10-26T17:13:31.987Z,14.54
2022-10-26T17:16:05.745Z,14.52
2022-10-26T17:18:34.746Z,14.45
2022-10-26T17:21:01.262Z,14.44
2022-10-26T17:23:27.733Z,14.38
2022-10-26T17:25:54.157Z,14.15
2022-10-26T17:28:20.640Z,14.13
2022-10-26T17:30:47.046Z,14.21
2022-10-26T17:33:15.920Z,13.96
2022-10-26T17:35:42.283Z,14.02
2022-10-26T17:38:08.664Z,13.94
2022-10-26T17:40:37.398Z,14.02
2022-10-26T17:43:03.783Z,13.95
2022-10-26T17:45:30.229Z,13.70
2022-10-26T17:47:56.598Z,13.75
2022-10-26T17:50:22.974Z,13.84
2022-10-26T17:52:49.344Z,13.80
2022-10-26T17:55:15.756Z,13.72
2022-10-26T17:57:42.235Z,13.67
2022-10-26T18:00:08.908Z,13.66
2022-10-26T18:02:38.092Z,13.61
2022-10-26T18:05:06.885Z,13.60
2022-10-26T18:07:34.359Z,13.50
2022-10-26T18:10:19.471Z,13.40
2022-10-26T18:12:47.167Z,13.41
2022-10-26T18:15:15.666Z,13.29
2022-10-26T18:17:42.738Z,13.28
2022-10-26T18:20:09.319Z,13.28
2022-10-26T18:22:35.687Z,13.31
2022-10-26T18:25:02.050Z,13.27
2022-10-26T18:27:28.398Z,13.20
2022-10-26T18:29:54.788Z,13.22
2022-10-26T18:32:21.409Z,13.22
2022-10-26T18:34:47.945Z,13.40
2022-10-26T18:37:14.368Z,13.38
2022-10-26T18:39:40.778Z,13.39
2022-10-26T18:42:07.153Z,13.42
2022-10-26T18:44:33.627Z,13.33
2022-10-26T18:47:00.058Z,13.40
2022-10-26T18:49:26.671Z,13.49
2022-10-26T18:51:53.132Z,13.46
2022-10-26T18:54:19.513Z,13.32
2022-10-26T18:56:48.390Z,13.24
2022-10-26T18:59:14.722Z,13.31
2022-10-26T19:01:42.274Z,13.21
2022-10-26T19:04:09.760Z,13.31
2022-10-26T19:06:40.930Z,13.23
2022-10-26T19:09:07.901Z,13.19
2022-10-26T19:11:34.413Z,13.23
2022-10-26T19:14:00.849Z,13.24
2022-10-26T19:16:46.342Z,13.18
2022-10-26T19:19:13.680Z,13.18
2022-10-26T19:21:40.139Z,13.16
2022-10-26T19:24:10.796Z,13.00
2022-10-26T19:26:39.984Z,13.03
2022-10-26T19:29:13.797Z,13.10
2022-10-26T19:31:40.569Z,13.04
2022-10-26T19:34:07.046Z,13.01
2022-10-26T19:36:33.883Z,13.00
2022-10-26T19:39:00.500Z,13.05
2022-10-26T19:41:28.278Z,13.18
2022-10-26T19:43:55.126Z,13.12
2022-10-26T19:46:23.157Z,13.11
2022-10-26T19:48:50.601Z,12.99
2022-10-26T19:51:17.418Z,13.00
2022-10-26T19:53:43.860Z,13.01
2022-10-26T19:56:13.282Z,13.05
2022-10-26T19:58:40.851Z,13.07
2022-10-26T20:01:07.705Z,12.99
2022-10-26T20:03:34.405Z,13.01
2022-10-26T20:06:02.095Z,13.00
2022-10-26T20:08:28.947Z,12.98
2022-10-26T20:10:56.377Z,12.94
2022-10-26T20:13:23.259Z,12.87
2022-10-26T20:15:50.982Z,12.90
2022-10-26T20:18:17.586Z,12.95
2022-10-26T20:20:43.921Z,12.97
2022-10-26T20:23:10.579Z,13.03
2022-10-26T20:25:37.742Z,12.98
2022-10-26T20:28:04.740Z,12.95
2022-10-26T20:30:32.130Z,12.90
2022-10-26T20:32:59.173Z,12.87
2022-10-26T20:35:25.849Z,12.92
2022-10-26T20:37:53.235Z,12.91
2022-10-26T20:40:21.631Z,12.98
2022-10-26T20:45:30.461Z,12.99
2022-10-26T20:47:57.727Z,12.94
2022-10-26T20:50:24.999Z,12.90
2022-10-26T20:53:00.929Z,12.94
2022-10-26T20:55:40.377Z,12.88
2022-10-26T20:58:14.076Z,12.91
2022-10-26T21:00:46.946Z,12.85
2022-10-26T21:03:13.375Z,12.83
2022-10-26T21:05:44.240Z,12.72
2022-10-26T21:08:10.574Z,12.80
2022-10-26T21:10:36.942Z,12.77
2022-10-26T21:13:03.298Z,12.72
2022-10-26T21:15:29.653Z,12.71
2022-10-26T21:17:56.181Z,12.60
2022-10-26T21:20:22.604Z,12.42
2022-10-26T21:22:48.946Z,12.32
2022-10-26T21:25:17.783Z,12.38
2022-10-26T21:27:46.611Z,12.22
2022-10-26T21:30:13.316Z,12.28
2022-10-26T21:32:39.750Z,12.22
2022-10-26T21:35:06.261Z,12.30
2022-10-26T21:37:32.616Z,12.26
2022-10-26T21:39:58.992Z,12.34
2022-10-26T21:42:28.216Z,12.25
2022-10-26T21:44:54.561Z,12.13
2022-10-26T21:47:20.930Z,12.09
2022-10-26T21:49:47.243Z,12.23
2022-10-26T21:52:13.618Z,12.22
2022-10-26T21:54:39.933Z,12.07
2022-10-26T21:57:06.370Z,11.89
2022-10-26T21:59:32.733Z,11.87
2022-10-26T22:01:59.243Z,11.82
2022-10-26T22:04:25.790Z,11.78
2022-10-26T22:06:52.137Z,11.78
2022-10-26T22:09:18.626Z,11.69
2022-10-26T22:11:44.967Z,11.73
2022-10-26T22:14:12.438Z,11.72
2022-10-26T22:16:38.794Z,11.67
2022-10-26T22:19:06.767Z,11.62
2022-10-26T22:21:35.127Z,11.61
2022-10-26T22:24:01.745Z,11.67
2022-10-26T22:26:28.364Z,11.78
2022-10-26T22:28:56.092Z,11.80
2022-10-26T22:31:27.049Z,11.60
2022-10-26T22:34:35.073Z,11.55
2022-10-26T22:37:01.587Z,11.46
2022-10-26T22:39:27.961Z,11.35
2022-10-26T22:41:54.283Z,11.19
2022-10-26T22:44:20.671Z,11.08
2022-10-26T22:46:47.006Z,11.28
2022-10-26T22:49:13.465Z,11.24
2022-10-26T22:51:42.258Z,11.14
2022-10-26T22:54:08.586Z,11.03
2022-10-26T22:56:36.331Z,11.02
2022-10-26T22:59:03.273Z,10.98
2022-10-26T23:01:31.385Z,11.10
2022-10-26T23:03:58.455Z,11.02
2022-10-26T23:06:27.015Z,10.97
2022-10-26T23:08:53.724Z,11.09
2022-10-26T23:11:21.135Z,10.95
2022-10-26T23:13:47.661Z,10.97
2022-10-26T23:16:15.551Z,11.00
2022-10-26T23:18:42.216Z,10.89
2022-10-26T23:21:09.363Z,10.88
2022-10-26T23:23:36.005Z,10.84
2022-10-26T23:26:03.193Z,10.86
2022-10-26T23:28:29.627Z,10.96
2022-10-26T23:30:55.987Z,10.91
2022-10-26T23:33:22.450Z,10.90
2022-10-26T23:35:49.957Z,10.74
2022-10-26T23:38:16.286Z,10.55
2022-10-26T23:40:48.586Z,10.54
2022-10-26T23:43:15.087Z,10.60
2022-10-26T23:45:41.556Z,10.74
2022-10-26T23:48:07.911Z,10.59
2022-10-26T23:50:34.383Z,10.62
2022-10-26T23:53:00.701Z,10.53
2022-10-26T23:55:27.612Z,10.57
2022-10-26T23:57:53.937Z,10.77
